Time;durP1;ratioP1;P1;durP2;ratioP2;P2;SDS_P1;SDS_P2;PMS_P1;PMS_P2;Temp;Humidity;BMP_temperature;BMP_pressure;BME280_temperature;BME280_humidity;BME280_pressure;Samples;Min_cycle;Max_cycle;Signal;HPM_P1;HPM_P2
2022/08/23 00:01:38;;;;;;;1060.75;971.13;;;24.10;99.90;;;;;;5054851;28;20188;-84
2022/08/23 00:04:07;;;;;;;1065.32;975.60;;;24.10;99.90;;;;;;5058852;28;20691;-83
2022/08/23 00:06:35;;;;;;;1060.93;971.40;;;24.10;99.90;;;;;;5046714;28;20700;-83
2022/08/23 00:09:02;;;;;;;1060.40;970.70;;;24.00;99.90;;;;;;5056254;28;20661;-82
2022/08/23 00:11:33;;;;;;;1054.15;964.63;;;24.00;99.90;;;;;;5061934;28;20191;-80
2022/08/23 00:14:03;;;;;;;1065.88;976.25;;;24.10;99.90;;;;;;5069542;28;20183;-81
2022/08/23 00:16:30;;;;;;;1058.65;968.88;;;24.00;99.90;;;;;;5071281;28;20213;-81
2022/08/23 00:18:56;;;;;;;1057.55;967.92;;;24.00;99.90;;;;;;5074001;28;20225;-82
2022/08/23 00:21:24;;;;;;;1069.07;979.10;;;24.00;99.90;;;;;;5066499;28;20199;-82
2022/08/23 00:23:52;;;;;;;1055.82;966.92;;;24.00;99.90;;;;;;5069207;28;20214;-81
2022/08/23 00:26:19;;;;;;;1067.97;978.60;;;24.00;99.90;;;;;;5072543;28;20205;-81
2022/08/23 00:28:46;;;;;;;1068.47;978.90;;;24.00;99.90;;;;;;5061961;28;20192;-81
2022/08/23 00:31:13;;;;;;;1059.68;970.40;;;23.90;99.90;;;;;;5056449;28;20196;-81
2022/08/23 00:33:39;;;;;;;1058.88;969.60;;;23.90;99.90;;;;;;5070199;28;20215;-82
2022/08/23 00:36:06;;;;;;;1052.22;963.20;;;23.90;99.90;;;;;;5064115;28;20209;-80
2022/08/23 00:38:33;;;;;;;1054.50;965.45;;;23.90;99.90;;;;;;5070036;28;20199;-81
2022/08/23 00:41:02;;;;;;;1055.40;966.17;;;23.90;99.90;;;;;;5068385;28;20213;-80
2022/08/23 00:49:14;;;;;;;1047.53;958.00;;;23.90;99.90;;;;;;5070842;28;20190;-82
2022/08/23 00:51:45;;;;;;;1050.03;960.42;;;23.80;99.90;;;;;;5072446;28;20258;-81
2022/08/23 00:54:14;;;;;;;1065.65;975.72;;;23.80;99.90;;;;;;5066320;28;20226;-81
2022/08/23 00:56:42;;;;;;;1064.30;974.03;;;23.80;99.90;;;;;;5071574;28;20179;-81
2022/08/23 00:59:09;;;;;;;1063.93;974.05;;;23.80;99.90;;;;;;5069241;28;20193;-80
2022/08/23 01:01:36;;;;;;;1050.35;961.00;;;23.80;99.90;;;;;;5058281;28;20195;-81
2022/08/23 01:04:04;;;;;;;1043.85;954.53;;;23.80;99.90;;;;;;5075391;28;20278;-80
2022/08/23 01:06:34;;;;;;;1070.43;979.83;;;23.80;99.90;;;;;;5063357;28;20653;-82
2022/08/23 01:09:08;;;;;;;1055.53;965.83;;;23.80;99.90;;;;;;5066822;28;20187;-81
2022/08/23 01:11:39;;;;;;;1049.25;959.83;;;23.70;99.90;;;;;;5060318;28;20640;-82
2022/08/23 01:14:13;;;;;;;1051.45;962.00;;;23.70;99.90;;;;;;5065044;28;20191;-81
2022/08/23 01:16:44;;;;;;;1048.13;958.80;;;23.70;99.90;;;;;;5058698;28;20205;-82
2022/08/23 01:19:16;;;;;;;1051.85;962.22;;;23.70;99.90;;;;;;5066517;28;20230;-82
2022/08/23 01:21:48;;;;;;;1042.10;952.80;;;23.70;99.90;;;;;;5060642;28;20183;-81
2022/08/23 01:24:17;;;;;;;1039.45;950.25;;;23.70;99.90;;;;;;5053006;28;20883;-82
2022/08/23 01:26:44;;;;;;;1053.28;963.70;;;23.60;99.90;;;;;;5053575;28;20199;-82
2022/08/23 01:29:11;;;;;;;1044.25;955.03;;;23.60;99.90;;;;;;5057148;28;20184;-81
2022/08/23 01:31:38;;;;;;;1056.55;966.80;;;23.60;99.90;;;;;;5062585;28;20724;-83
2022/08/23 01:34:09;;;;;;;1058.57;968.72;;;23.60;99.90;;;;;;5061072;28;20729;-81
2022/08/23 01:36:36;;;;;;;1053.50;963.72;;;23.50;99.90;;;;;;5064228;28;20223;-80
2022/08/23 01:39:03;;;;;;;1054.05;964.25;;;23.50;99.90;;;;;;5058677;28;20242;-81
2022/08/23 01:41:32;;;;;;;1057.97;968.15;;;23.50;99.90;;;;;;5071858;28;20254;-80
2022/08/23 01:43:59;;;;;;;1051.82;962.28;;;23.50;99.90;;;;;;5069839;28;20282;-81
2022/08/23 01:46:26;;;;;;;1044.15;954.83;;;23.50;99.90;;;;;;5064966;28;20195;-81
2022/08/23 01:48:54;;;;;;;1059.97;969.78;;;23.50;99.90;;;;;;5064634;28;20206;-81
2022/08/23 01:51:22;;;;;;;1049.43;959.90;;;23.50;99.90;;;;;;5058161;28;20203;-81
2022/08/23 01:53:49;;;;;;;1048.53;959.20;;;23.50;99.90;;;;;;5069679;28;20213;-80
2022/08/23 01:56:18;;;;;;;1044.60;955.33;;;23.40;99.90;;;;;;5070436;28;20382;-81
2022/08/23 01:58:47;;;;;;;1034.75;945.65;;;23.40;99.90;;;;;;5058609;28;20195;-81
2022/08/23 02:01:14;;;;;;;1028.65;939.95;;;23.40;99.90;;;;;;5064673;28;20330;-81
2022/08/23 02:03:41;;;;;;;1045.15;955.78;;;23.40;99.90;;;;;;5068956;28;20203;-81
2022/08/23 02:06:08;;;;;;;1037.53;948.50;;;23.40;99.90;;;;;;5065309;28;20246;-81
2022/08/23 02:11:21;;;;;;;1045.78;956.40;;;23.30;99.90;;;;;;5078900;28;20221;-81
2022/08/23 02:13:50;;;;;;;1037.55;948.35;;;23.30;99.90;;;;;;5064409;28;20222;-81
2022/08/23 02:16:23;;;;;;;1038.72;949.63;;;23.30;99.90;;;;;;5063181;28;20199;-82
2022/08/23 02:18:50;;;;;;;1033.50;944.53;;;23.30;99.90;;;;;;5063005;28;20215;-81
2022/08/23 02:21:18;;;;;;;1033.22;944.38;;;23.30;99.90;;;;;;5061277;28;20271;-81
2022/08/23 02:23:45;;;;;;;1037.43;948.25;;;23.30;99.90;;;;;;5070358;28;20218;-81
2022/08/23 02:26:11;;;;;;;1035.38;946.58;;;23.20;99.90;;;;;;5074763;28;20194;-80
2022/08/23 02:28:38;;;;;;;1045.90;956.35;;;23.30;99.90;;;;;;5068908;28;20207;-82
2022/08/23 02:31:06;;;;;;;1023.53;935.00;;;23.20;99.90;;;;;;5054378;28;20630;-80
2022/08/23 02:33:33;;;;;;;1030.78;941.80;;;23.20;99.90;;;;;;5071632;28;20197;-82
2022/08/23 02:36:00;;;;;;;1049.25;959.47;;;23.20;99.90;;;;;;5064807;28;20199;-81
2022/08/23 02:38:27;;;;;;;1049.45;959.88;;;23.20;99.90;;;;;;5060491;28;20275;-82
2022/08/23 02:40:54;;;;;;;1036.97;947.63;;;23.20;99.90;;;;;;5070005;28;20198;-80
2022/08/23 02:43:20;;;;;;;1043.32;953.92;;;23.20;99.90;;;;;;5060735;28;20211;-82
2022/08/23 02:45:47;;;;;;;1041.28;952.00;;;23.10;99.90;;;;;;5047653;28;20223;-82
2022/08/23 02:48:15;;;;;;;1029.80;940.92;;;23.10;99.90;;;;;;5044648;28;20203;-81
2022/08/23 02:50:42;;;;;;;1026.60;937.97;;;23.10;99.90;;;;;;5041378;28;20199;-82
2022/08/23 02:53:09;;;;;;;1044.50;955.17;;;23.10;99.90;;;;;;5043488;28;20565;-82
2022/08/23 02:55:36;;;;;;;1025.68;937.13;;;23.10;99.90;;;;;;5051878;28;20195;-80
2022/08/23 02:58:04;;;;;;;1040.68;951.30;;;23.10;99.90;;;;;;5044339;28;20226;-82
2022/08/23 03:00:31;;;;;;;1031.68;942.83;;;23.00;99.90;;;;;;5057754;28;20277;-81
2022/08/23 03:02:58;;;;;;;1011.22;923.00;;;23.00;99.90;;;;;;5052521;28;20669;-81
2022/08/23 03:05:26;;;;;;;1034.40;945.13;;;23.00;99.90;;;;;;5057296;28;20219;-81
2022/08/23 03:07:53;;;;;;;1022.63;933.83;;;23.00;99.90;;;;;;5055387;28;20202;-82
2022/08/23 03:10:20;;;;;;;1018.80;930.25;;;23.00;99.90;;;;;;5047037;28;20669;-82
2022/08/23 03:12:47;;;;;;;1025.57;936.92;;;23.00;99.90;;;;;;5044343;28;20252;-81
2022/08/23 03:15:13;;;;;;;1027.80;939.03;;;22.90;99.90;;;;;;5044600;28;20215;-82
2022/08/23 03:17:40;;;;;;;1026.78;937.95;;;22.90;99.90;;;;;;5054013;28;20194;-82
2022/08/23 03:20:08;;;;;;;1027.60;938.95;;;22.90;99.90;;;;;;5046737;28;20218;-81
2022/08/23 03:22:37;;;;;;;1027.97;939.10;;;22.90;99.90;;;;;;5045200;28;20202;-82
2022/08/23 03:25:05;;;;;;;1024.68;936.00;;;22.90;99.90;;;;;;5039456;28;20227;-82
2022/08/23 03:27:31;;;;;;;1024.85;936.17;;;22.90;99.90;;;;;;5046684;28;20643;-81
2022/08/23 03:29:58;;;;;;;1019.58;931.25;;;22.90;99.90;;;;;;5046646;28;20673;-80
2022/08/23 03:32:25;;;;;;;1025.78;937.00;;;22.90;99.90;;;;;;5041835;28;20218;-81
2022/08/23 03:34:52;;;;;;;1010.88;922.60;;;22.80;99.90;;;;;;5044859;28;20207;-81
2022/08/23 03:37:19;;;;;;;1029.18;940.42;;;22.90;99.90;;;;;;5038640;28;20218;-81
2022/08/23 03:39:47;;;;;;;1017.10;928.45;;;22.80;99.90;;;;;;5046707;28;20632;-81
2022/08/23 03:42:14;;;;;;;1029.10;940.13;;;22.80;99.90;;;;;;5047685;28;20207;-81
2022/08/23 03:44:40;;;;;;;1007.22;919.00;;;22.80;99.90;;;;;;5043840;28;20215;-81
2022/08/23 03:47:07;;;;;;;1019.75;931.05;;;22.70;99.90;;;;;;5050209;28;20562;-81
2022/08/23 03:49:34;;;;;;;1015.15;926.65;;;22.70;99.90;;;;;;5036794;28;20663;-81
2022/08/23 03:52:01;;;;;;;1021.45;932.72;;;22.70;99.90;;;;;;5037239;28;20202;-82
2022/08/23 03:54:28;;;;;;;1011.25;922.75;;;22.70;99.90;;;;;;5044780;28;20206;-81
2022/08/23 03:56:59;;;;;;;1018.50;929.83;;;22.70;99.90;;;;;;5049836;28;20206;-81
2022/08/23 03:59:26;;;;;;;1022.83;934.03;;;22.70;99.90;;;;;;5044977;28;20195;-81
2022/08/23 04:01:53;;;;;;;1017.63;928.97;;;22.60;99.90;;;;;;5037919;28;20200;-81
2022/08/23 04:04:20;;;;;;;1028.63;939.55;;;22.60;99.90;;;;;;5048028;28;20202;-81
2022/08/23 04:06:47;;;;;;;1008.42;920.20;;;22.70;99.90;;;;;;5048864;28;20231;-81
2022/08/23 04:09:15;;;;;;;1018.13;929.47;;;22.60;99.90;;;;;;5041763;28;20196;-81
2022/08/23 04:11:42;;;;;;;1030.68;941.78;;;22.60;99.90;;;;;;5037073;28;20202;-81
2022/08/23 04:14:11;;;;;;;1007.20;918.92;;;22.60;99.90;;;;;;5045238;28;20208;-81
2022/08/23 04:16:39;;;;;;;1001.40;913.38;;;22.60;99.90;;;;;;5048590;28;20293;-81
2022/08/23 04:19:06;;;;;;;1004.50;916.70;;;22.60;99.90;;;;;;5052345;28;20565;-81
2022/08/23 04:21:34;;;;;;;1003.72;915.47;;;22.60;99.90;;;;;;5046344;28;20206;-81
2022/08/23 04:24:01;;;;;;;1017.05;928.58;;;22.60;99.90;;;;;;5049131;28;20582;-81
2022/08/23 04:26:28;;;;;;;1014.38;926.03;;;22.50;99.90;;;;;;5040824;28;20241;-81
2022/08/23 04:28:54;;;;;;;1013.63;925.15;;;22.50;99.90;;;;;;5051829;28;20198;-81
2022/08/23 04:31:25;;;;;;;1014.92;926.58;;;22.50;99.90;;;;;;5041901;28;20693;-81
2022/08/23 04:33:52;;;;;;;1010.22;921.95;;;22.50;99.90;;;;;;5042440;28;20262;-82
2022/08/23 04:36:18;;;;;;;1013.10;924.78;;;22.50;99.90;;;;;;5045324;28;20191;-82
2022/08/23 04:38:45;;;;;;;1016.03;927.60;;;22.50;99.90;;;;;;5053055;28;20195;-82
2022/08/23 04:43:56;;;;;;;997.67;909.92;;;22.40;99.90;;;;;;5040746;28;20205;-82
2022/08/23 04:46:24;;;;;;;1008.47;920.13;;;22.40;99.90;;;;;;5041449;28;20222;-83
2022/08/23 04:48:52;;;;;;;1003.50;915.47;;;22.40;99.90;;;;;;5044444;28;20192;-82
2022/08/23 04:51:21;;;;;;;1007.20;918.83;;;22.40;99.90;;;;;;5038214;28;20200;-82
2022/08/23 04:53:48;;;;;;;999.33;911.38;;;22.30;99.90;;;;;;5051735;28;20195;-82
2022/08/23 04:56:14;;;;;;;1004.10;916.03;;;22.40;99.90;;;;;;5045235;28;20194;-80
2022/08/23 04:58:41;;;;;;;1007.28;918.97;;;22.30;99.90;;;;;;5047296;28;20664;-80
2022/08/23 05:01:09;;;;;;;999.03;911.10;;;22.30;99.90;;;;;;5043370;28;20208;-80
2022/08/23 05:03:37;;;;;;;1001.45;913.25;;;22.30;99.90;;;;;;5047701;28;20201;-80
2022/08/23 05:06:04;;;;;;;1003.17;915.20;;;22.30;99.90;;;;;;5040514;28;20218;-80
2022/08/23 05:08:32;;;;;;;1000.95;913.03;;;22.30;99.90;;;;;;5046510;28;20200;-80
2022/08/23 05:11:01;;;;;;;998.50;910.72;;;22.30;99.90;;;;;;5038293;28;20207;-80
2022/08/23 05:13:28;;;;;;;1001.28;913.35;;;22.30;99.90;;;;;;5033130;28;20741;-80
2022/08/23 05:15:55;;;;;;;1006.47;918.50;;;22.30;99.90;;;;;;5041157;28;20285;-80
2022/08/23 05:18:22;;;;;;;1003.72;915.72;;;22.20;99.90;;;;;;5048622;28;20199;-80
2022/08/23 05:20:50;;;;;;;987.20;899.70;;;22.20;99.90;;;;;;5039809;28;20201;-80
2022/08/23 05:23:17;;;;;;;999.22;911.33;;;22.20;99.90;;;;;;5044733;28;20208;-80
2022/08/23 05:25:49;;;;;;;998.97;911.20;;;22.20;99.90;;;;;;5047203;28;20226;-80
2022/08/23 05:28:18;;;;;;;1002.92;914.60;;;22.20;99.90;;;;;;5042873;28;20203;-80
2022/08/23 05:30:45;;;;;;;992.22;904.35;;;22.20;99.90;;;;;;5048656;28;20202;-80
2022/08/23 05:33:12;;;;;;;999.35;911.20;;;22.20;99.90;;;;;;5050746;28;20647;-80
2022/08/23 05:35:39;;;;;;;1001.40;913.25;;;22.20;99.90;;;;;;5040448;28;20203;-80
2022/08/23 05:38:08;;;;;;;992.63;904.78;;;22.20;99.90;;;;;;5043993;28;20231;-80
2022/08/23 05:40:34;;;;;;;996.10;908.22;;;22.20;99.90;;;;;;5038777;28;20204;-80
2022/08/23 05:43:01;;;;;;;998.35;910.38;;;22.20;99.90;;;;;;5044598;28;20265;-80
2022/08/23 05:45:28;;;;;;;1001.17;913.00;;;22.20;99.90;;;;;;5036365;28;20306;-81
2022/08/23 05:47:55;;;;;;;996.78;908.72;;;22.20;99.90;;;;;;5049513;28;20205;-80
2022/08/23 05:50:22;;;;;;;994.65;906.95;;;22.20;99.90;;;;;;5039128;28;20671;-80
2022/08/23 05:52:48;;;;;;;995.95;908.05;;;22.20;99.90;;;;;;5041520;28;20211;-82
2022/08/23 05:55:16;;;;;;;1010.40;922.08;;;22.20;99.90;;;;;;5047281;28;20672;-80
2022/08/23 05:57:44;;;;;;;1005.17;916.67;;;22.40;99.90;;;;;;5037147;28;20195;-81
2022/08/23 06:00:13;;;;;;;1012.10;923.53;;;22.60;99.90;;;;;;5043255;28;20566;-81
2022/08/23 06:02:40;;;;;;;1015.97;927.33;;;22.80;99.90;;;;;;5044192;28;20201;-81
2022/08/23 06:05:08;;;;;;;1016.80;928.13;;;23.00;99.90;;;;;;5045622;28;20195;-81
2022/08/23 06:07:35;;;;;;;1027.10;938.13;;;23.20;99.90;;;;;;5043971;28;20203;-81
2022/08/23 06:10:02;;;;;;;1034.85;945.65;;;23.40;99.90;;;;;;5040589;28;20190;-82
2022/08/23 06:12:31;;;;;;;1041.03;951.53;;;23.50;99.90;;;;;;5036964;28;20258;-81
2022/08/23 06:14:58;;;;;;;1043.72;954.13;;;23.70;99.90;;;;;;5041983;28;20202;-81
2022/08/23 06:17:25;;;;;;;1049.50;959.78;;;23.90;99.90;;;;;;5046666;28;20488;-80
2022/08/23 06:19:51;;;;;;;1045.22;955.67;;;24.00;99.90;;;;;;5046743;28;20212;-80
2022/08/23 06:22:18;;;;;;;1073.25;982.58;;;24.10;99.90;;;;;;5043042;28;20200;-79
2022/08/23 06:24:45;;;;;;;1054.68;964.75;;;24.30;99.90;;;;;;5043200;28;20567;-80
2022/08/23 06:27:13;;;;;;;1055.78;965.92;;;24.40;99.90;;;;;;5049183;28;20215;-80
2022/08/23 06:29:41;;;;;;;1057.20;967.20;;;24.40;99.90;;;;;;5045612;28;20203;-81
2022/08/23 06:32:08;;;;;;;1059.00;969.07;;;24.50;99.90;;;;;;5045832;28;20468;-80
2022/08/23 06:34:36;;;;;;;1064.77;974.37;;;24.60;99.70;;;;;;5040124;28;20545;-79
2022/08/23 06:37:05;;;;;;;1077.95;987.15;;;24.70;99.50;;;;;;5050727;28;20453;-79
2022/08/23 06:39:33;;;;;;;1075.70;984.93;;;24.80;99.20;;;;;;5043045;28;20210;-80
2022/08/23 06:42:02;;;;;;;1078.60;987.93;;;24.80;99.00;;;;;;5048152;28;20834;-82
2022/08/23 06:44:30;;;;;;;1073.73;983.37;;;24.90;98.80;;;;;;5034228;28;20481;-82
2022/08/23 06:46:58;;;;;;;1090.33;997.23;;;25.00;98.60;;;;;;5039681;28;20876;-82
2022/08/23 06:49:26;;;;;;;1087.93;995.87;;;25.10;98.30;;;;;;5049811;28;20446;-82
2022/08/23 06:51:55;;;;;;;1086.37;994.73;;;25.10;98.00;;;;;;5047230;28;20632;-82
2022/08/23 06:54:26;;;;;;;1089.77;996.97;;;25.20;97.80;;;;;;5037713;28;20538;-80
2022/08/23 06:56:54;;;;;;;1099.57;999.90;;;25.30;97.60;;;;;;5033513;28;20445;-81
2022/08/23 06:59:21;;;;;;;1106.07;999.90;;;25.30;97.40;;;;;;5034938;28;20462;-81
2022/08/23 07:01:52;;;;;;;1099.53;999.90;;;25.40;97.20;;;;;;5038821;28;20477;-81
2022/08/23 07:04:22;;;;;;;1092.53;998.13;;;25.40;97.00;;;;;;5045122;28;20480;-80
2022/08/23 07:06:49;;;;;;;1093.17;998.23;;;25.50;96.90;;;;;;5046347;28;20490;-80
2022/08/23 07:09:17;;;;;;;1096.43;998.50;;;25.60;96.70;;;;;;5043444;28;20469;-80
2022/08/23 07:11:44;;;;;;;1105.53;999.90;;;25.60;96.50;;;;;;5041416;28;20808;-80
2022/08/23 07:14:13;;;;;;;1111.33;999.90;;;25.70;96.30;;;;;;5045684;28;20532;-80
2022/08/23 07:16:43;;;;;;;1109.27;999.90;;;25.70;96.10;;;;;;5051210;28;20437;-80
2022/08/23 07:19:11;;;;;;;1107.77;999.90;;;25.80;95.90;;;;;;5044922;28;20824;-79
2022/08/23 07:21:39;;;;;;;1102.67;999.90;;;25.90;95.80;;;;;;5038579;28;20465;-82
2022/08/23 07:24:07;;;;;;;1110.77;999.90;;;25.90;95.60;;;;;;5033447;28;20849;-81
2022/08/23 07:26:34;;;;;;;1113.93;999.90;;;26.00;95.40;;;;;;5046474;28;20481;-80
2022/08/23 07:29:05;;;;;;;1113.83;999.90;;;26.10;95.20;;;;;;5044493;28;20464;-80
2022/08/23 07:31:33;;;;;;;1116.93;999.90;;;26.10;95.00;;;;;;5037292;28;20462;-79
2022/08/23 07:34:02;;;;;;;1125.03;999.90;;;26.20;94.90;;;;;;5044061;28;20460;-80
2022/08/23 07:36:30;;;;;;;1124.20;999.90;;;26.20;94.70;;;;;;5040814;28;20462;-79
2022/08/23 07:38:59;;;;;;;1120.90;999.90;;;26.30;94.50;;;;;;5042083;28;20459;-80
2022/08/23 07:41:29;;;;;;;1119.73;999.90;;;26.40;94.30;;;;;;5049530;28;20810;-78
2022/08/23 07:43:56;;;;;;;1130.70;999.90;;;26.40;94.00;;;;;;5040560;28;20613;-78
2022/08/23 07:46:24;;;;;;;1124.23;999.90;;;26.50;93.90;;;;;;5043539;28;20486;-78
2022/08/23 07:48:51;;;;;;;1140.43;999.90;;;26.50;93.80;;;;;;5036219;28;21032;-78
2022/08/23 07:51:18;;;;;;;1141.47;999.90;;;26.60;93.60;;;;;;5037108;28;20842;-80
2022/08/23 07:53:46;;;;;;;1132.90;999.90;;;26.60;93.40;;;;;;5044202;28;20489;-80
2022/08/23 07:56:16;;;;;;;1133.80;999.90;;;26.70;93.30;;;;;;5043229;28;20480;-79
2022/08/23 07:58:43;;;;;;;1145.83;999.90;;;26.70;93.10;;;;;;5043647;28;20972;-80
2022/08/23 08:01:14;;;;;;;1141.93;999.90;;;26.80;92.90;;;;;;5041586;28;20814;-79
2022/08/23 08:03:42;;;;;;;1157.13;999.90;;;26.90;92.80;;;;;;5049774;28;20468;-83
2022/08/23 08:06:12;;;;;;;1140.20;999.90;;;26.90;92.70;;;;;;5039619;28;20486;-80
2022/08/23 08:08:40;;;;;;;1134.53;999.90;;;27.00;92.60;;;;;;5037662;28;20512;-81
2022/08/23 08:11:07;;;;;;;1152.63;999.90;;;27.00;92.50;;;;;;5045182;28;20446;-81
2022/08/23 08:13:37;;;;;;;1149.40;999.90;;;27.00;92.30;;;;;;5038389;28;20457;-80
2022/08/23 08:16:04;;;;;;;1157.20;999.90;;;27.00;92.20;;;;;;5042269;28;20438;-80
2022/08/23 08:18:31;;;;;;;1145.87;999.90;;;27.10;92.10;;;;;;5046832;28;20941;-82
2022/08/23 08:20:57;;;;;;;1165.03;999.90;;;27.20;92.00;;;;;;5041538;28;20453;-80
2022/08/23 08:23:24;;;;;;;1166.03;999.90;;;27.20;91.80;;;;;;5052576;28;20792;-80
2022/08/23 08:26:01;;;;;;;1163.00;999.90;;;27.20;91.40;;;;;;5042196;28;20469;-82
2022/08/23 08:28:27;;;;;;;1155.60;999.90;;;27.30;91.30;;;;;;5035495;28;20488;-80
2022/08/23 08:30:57;;;;;;;1163.00;999.90;;;27.30;91.30;;;;;;5039486;28;20455;-81
2022/08/23 08:33:24;;;;;;;1161.17;999.90;;;27.30;91.20;;;;;;5042888;28;20449;-79
2022/08/23 08:35:51;;;;;;;1166.03;999.90;;;27.30;91.10;;;;;;5045756;28;20457;-80
2022/08/23 08:38:18;;;;;;;1154.50;999.90;;;27.40;91.00;;;;;;5040207;28;20941;-81
2022/08/23 08:40:45;;;;;;;1165.93;999.90;;;27.30;91.10;;;;;;5038786;28;20465;-81
2022/08/23 08:43:28;;;;;;;1166.50;999.90;;;27.40;91.00;;;;;;5042639;28;20465;-81
2022/08/23 08:46:05;;;;;;;1165.10;999.90;;;27.40;90.90;;;;;;5048540;28;20460;-80
2022/08/23 08:48:40;;;;;;;1161.97;999.90;;;27.40;90.80;;;;;;5048923;28;21027;-80
2022/08/23 08:51:33;;;;;;;1156.60;999.90;;;27.40;90.70;;;;;;5039106;28;20531;-80
2022/08/23 08:54:03;;;;;;;1162.00;999.90;;;27.40;90.60;;;;;;5047870;28;20453;-81
2022/08/23 08:56:32;;;;;;;1168.13;999.90;;;27.50;90.40;;;;;;5047354;28;20829;-82
2022/08/23 08:59:03;;;;;;;1158.27;999.90;;;27.50;90.40;;;;;;5049313;28;20453;-82
2022/08/23 09:01:35;;;;;;;1163.57;999.90;;;27.50;90.30;;;;;;5050311;28;20517;-81
2022/08/23 09:04:02;;;;;;;1167.23;999.90;;;27.50;90.40;;;;;;5037040;28;20817;-82
2022/08/23 09:06:35;;;;;;;1168.60;999.90;;;27.50;90.00;;;;;;5041868;28;20478;-81
2022/08/23 09:09:17;;;;;;;1173.67;999.90;;;27.50;90.30;;;;;;5035127;28;20545;-79
2022/08/23 09:11:53;;;;;;;1161.60;999.90;;;27.60;90.30;;;;;;5043138;28;20465;-81
2022/08/23 09:14:55;;;;;;;1153.27;999.90;;;27.60;90.40;;;;;;5046491;28;20461;-82
2022/08/23 09:17:32;;;;;;;1169.73;999.90;;;27.60;90.00;;;;;;5046696;28;20449;-82
2022/08/23 09:20:04;;;;;;;1165.90;999.90;;;27.50;90.00;;;;;;5034136;28;20547;-82
2022/08/23 09:22:37;;;;;;;1172.87;999.90;;;27.50;90.10;;;;;;5052132;28;20445;-81
2022/08/23 09:25:04;;;;;;;1161.53;999.90;;;27.50;89.80;;;;;;5047451;28;20465;-81
2022/08/23 09:27:32;;;;;;;1160.90;999.90;;;27.50;90.00;;;;;;5043190;28;21016;-84
2022/08/23 09:30:00;;;;;;;1167.17;999.90;;;27.50;89.80;;;;;;5041126;28;20449;-83
2022/08/23 09:32:32;;;;;;;1171.67;999.90;;;27.50;89.60;;;;;;5034110;28;20447;-82
2022/08/23 09:35:12;;;;;;;1160.00;999.90;;;27.50;89.80;;;;;;5042199;28;20449;-82
2022/08/23 09:38:01;;;;;;;1168.90;999.90;;;27.50;90.00;;;;;;5039097;28;20457;-83
2022/08/23 09:40:36;;;;;;;1159.33;999.90;;;27.50;90.00;;;;;;5046213;28;20449;-82
2022/08/23 09:43:11;;;;;;;1156.57;999.90;;;27.50;90.00;;;;;;5042144;28;20936;-82
2022/08/23 09:45:42;;;;;;;1157.07;999.90;;;27.50;89.80;;;;;;5043507;28;20522;-83
2022/08/23 09:48:15;;;;;;;1156.80;999.90;;;27.50;90.20;;;;;;5047149;28;20478;-82
2022/08/23 09:50:48;;;;;;;1156.37;999.90;;;27.50;90.10;;;;;;5043416;28;20454;-84
2022/08/23 09:53:22;;;;;;;1166.33;999.90;;;27.50;89.90;;;;;;5049082;28;20493;-83
2022/08/23 09:55:52;;;;;;;1164.43;999.90;;;27.50;89.30;;;;;;5047224;28;20500;-82
2022/08/23 09:58:28;;;;;;;1161.10;999.90;;;27.40;90.00;;;;;;5046921;28;20575;-82
2022/08/23 10:01:10;;;;;;;1163.33;999.90;;;27.40;89.80;;;;;;5032584;28;20457;-82
2022/08/23 10:03:38;;;;;;;1156.27;999.90;;;27.40;89.90;;;;;;5035233;28;20807;-83
2022/08/23 10:06:07;;;;;;;1153.67;999.90;;;27.40;89.50;;;;;;5044729;28;20461;-84
2022/08/23 10:08:37;;;;;;;1166.77;999.90;;;27.40;90.00;;;;;;5045945;28;20572;-82
2022/08/23 10:11:12;;;;;;;1168.47;999.90;;;27.40;90.00;;;;;;5040032;28;20514;-81
2022/08/23 10:13:42;;;;;;;1155.80;999.90;;;27.40;90.00;;;;;;5038142;28;20936;-81
2022/08/23 10:16:16;;;;;;;1157.77;999.90;;;27.40;90.20;;;;;;5041163;28;20450;-80
2022/08/23 10:18:53;;;;;;;1160.90;999.90;;;27.40;90.70;;;;;;5038158;28;20489;-81
2022/08/23 10:21:25;;;;;;;1159.93;999.90;;;27.40;90.00;;;;;;5042644;28;20516;-81
2022/08/23 10:24:12;;;;;;;1161.93;999.90;;;27.40;90.00;;;;;;5042123;28;20940;-83
2022/08/23 10:26:46;;;;;;;1158.50;999.90;;;27.40;90.10;;;;;;5034024;28;20957;-83
2022/08/23 10:29:37;;;;;;;1160.67;999.90;;;27.40;90.00;;;;;;5038915;28;21096;-84
2022/08/23 10:32:21;;;;;;;1148.77;999.90;;;27.30;90.00;;;;;;5033908;28;20457;-83
2022/08/23 10:35:02;;;;;;;1147.27;999.90;;;27.30;89.70;;;;;;5033637;28;20453;-83
2022/08/23 10:37:48;;;;;;;1141.70;999.90;;;27.30;89.30;;;;;;5046217;28;20473;-84
2022/08/23 10:40:19;;;;;;;1155.67;999.90;;;27.30;88.70;;;;;;5045516;28;20464;-84
2022/08/23 10:42:57;;;;;;;1160.73;999.90;;;27.30;88.00;;;;;;5046676;28;20454;-82
2022/08/23 10:45:27;;;;;;;1157.27;999.90;;;27.30;88.20;;;;;;5050246;28;20492;-84
2022/08/23 10:48:07;;;;;;;1152.07;999.90;;;27.20;88.10;;;;;;5048775;28;20469;-84
2022/08/23 10:50:44;;;;;;;1143.30;999.90;;;27.20;88.40;;;;;;5049254;28;20459;-84
2022/08/23 10:53:15;;;;;;;1162.77;999.90;;;27.20;88.50;;;;;;5043448;28;20456;-83
2022/08/23 10:56:01;;;;;;;1141.43;999.90;;;27.20;88.30;;;;;;5054204;28;20445;-83
2022/08/23 10:58:31;;;;;;;1155.53;999.90;;;27.20;87.80;;;;;;5050849;28;20450;-84
2022/08/23 11:01:00;;;;;;;1152.43;999.90;;;27.20;88.90;;;;;;5051644;28;20453;-84
2022/08/23 11:03:29;;;;;;;1149.83;999.90;;;27.20;88.40;;;;;;5052376;28;20447;-84
2022/08/23 11:06:48;;;;;;;1153.63;999.90;;;27.10;87.80;;;;;;5050843;28;20453;-84
2022/08/23 11:09:46;;;;;;;1136.47;999.90;;;27.10;87.20;;;;;;5033996;28;20438;-84
2022/08/23 11:12:21;;;;;;;1137.93;999.90;;;27.10;87.60;;;;;;5049834;28;20432;-83
2022/08/23 11:15:02;;;;;;;1136.87;999.90;;;27.10;88.30;;;;;;5045335;28;20534;-83
2022/08/23 11:17:34;;;;;;;1142.53;999.90;;;27.10;87.70;;;;;;5039932;28;20453;-83
2022/08/23 11:20:06;;;;;;;1147.00;999.90;;;27.10;88.30;;;;;;5040821;28;20482;-81
2022/08/23 11:22:34;;;;;;;1141.67;999.90;;;27.10;88.80;;;;;;5047975;28;20431;-80
2022/08/23 11:25:05;;;;;;;1143.83;999.90;;;27.10;88.80;;;;;;5047996;28;20420;-81
2022/08/23 11:27:35;;;;;;;1139.73;999.90;;;27.10;88.90;;;;;;5046181;28;20983;-82
2022/08/23 11:30:40;;;;;;;1138.17;999.90;;;27.10;88.80;;;;;;5041529;28;20461;-81
2022/08/23 11:33:21;;;;;;;1143.63;999.90;;;27.10;89.10;;;;;;5045166;28;20565;-81
2022/08/23 11:35:50;;;;;;;1132.27;999.90;;;27.00;88.70;;;;;;5043684;28;20458;-82
2022/08/23 11:38:38;;;;;;;1140.63;999.90;;;27.00;88.70;;;;;;5042391;28;20450;-80
2022/08/23 11:41:22;;;;;;;1131.97;999.90;;;27.00;89.20;;;;;;5036078;28;20458;-81
2022/08/23 11:44:12;;;;;;;1128.20;999.90;;;27.00;89.20;;;;;;5041050;28;20473;-83
2022/08/23 11:46:58;;;;;;;1149.23;999.90;;;26.90;88.70;;;;;;5038704;28;20516;-81
2022/08/23 11:49:52;;;;;;;1146.80;999.90;;;26.90;87.70;;;;;;5039691;28;20945;-81
2022/08/23 11:52:30;;;;;;;1129.40;999.90;;;27.00;88.60;;;;;;5040682;28;20896;-81
2022/08/23 11:55:20;;;;;;;1134.33;999.90;;;26.90;88.30;;;;;;5049585;28;20460;-80
2022/08/23 11:58:04;;;;;;;1133.43;999.90;;;27.00;88.50;;;;;;5050605;28;20441;-80
2022/08/23 12:00:54;;;;;;;1156.47;999.90;;;27.00;88.60;;;;;;5041714;28;20930;-79
2022/08/23 12:03:25;;;;;;;1138.93;999.90;;;27.00;88.60;;;;;;5048572;28;20445;-81
2022/08/23 12:06:14;;;;;;;1136.10;999.90;;;26.90;87.70;;;;;;5038986;28;20511;-79
2022/08/23 12:08:54;;;;;;;1150.90;999.90;;;27.10;81.20;;;;;;5042596;28;21030;-80
2022/08/23 12:11:24;;;;;;;1139.27;999.90;;;27.20;82.90;;;;;;5046270;28;20457;-80
2022/08/23 12:14:20;;;;;;;1156.80;999.90;;;27.20;83.80;;;;;;5048992;28;20457;-79
2022/08/23 12:16:47;;;;;;;1145.83;999.90;;;27.30;84.20;;;;;;5049086;28;20461;-78
2022/08/23 12:19:28;;;;;;;1153.37;999.90;;;27.30;84.30;;;;;;5048177;28;20937;-78
2022/08/23 12:21:56;;;;;;;1155.93;999.90;;;27.30;84.30;;;;;;5045520;28;21110;-80
2022/08/23 12:24:28;;;;;;;1158.93;999.90;;;27.30;83.70;;;;;;5038872;28;20462;-81
2022/08/23 12:27:06;;;;;;;1151.83;999.90;;;27.30;84.20;;;;;;5048880;28;20461;-79